Time;durP1;ratioP1;P1;durP2;ratioP2;P2;SDS_P1;SDS_P2;PMS_P1;PMS_P2;Temp;Humidity;BMP_temperature;BMP_pressure;BME280_temperature;BME280_humidity;BME280_pressure;Samples;Min_cycle;Max_cycle;Signal;HPM_P1;HPM_P2
2024/01/10 00:01:40;;;;;;;23.50;11.38;;;-2.90;68.70;;;;;;5015442;28;20193;-88
2024/01/10 00:04:07;;;;;;;32.47;14.20;;;-2.90;68.90;;;;;;5015743;28;20279;-86
2024/01/10 00:06:34;;;;;;;24.40;11.70;;;-2.90;69.10;;;;;;5015273;28;20196;-87
2024/01/10 00:09:02;;;;;;;24.95;13.25;;;-2.90;69.20;;;;;;5015969;28;20282;-87
2024/01/10 00:11:29;;;;;;;32.15;13.68;;;-2.90;69.10;;;;;;5029289;28;20306;-87
2024/01/10 00:13:59;;;;;;;30.35;14.18;;;-2.90;69.10;;;;;;5035049;28;20573;-87
2024/01/10 00:16:27;;;;;;;26.55;12.73;;;-2.80;68.80;;;;;;5035407;28;20343;-86
2024/01/10 00:18:54;;;;;;;27.83;13.68;;;-2.80;68.70;;;;;;5015597;28;20275;-87
2024/01/10 00:21:21;;;;;;;29.63;14.32;;;-2.90;68.40;;;;;;5014742;28;20228;-87
2024/01/10 00:23:49;;;;;;;33.90;14.02;;;-2.90;68.60;;;;;;5015302;28;20294;-87
2024/01/10 00:26:16;;;;;;;27.40;13.85;;;-2.90;68.30;;;;;;5015501;28;20247;-87
2024/01/10 00:28:45;;;;;;;28.00;12.40;;;-2.90;68.00;;;;;;5014467;28;20192;-86
2024/01/10 00:31:12;;;;;;;35.40;13.52;;;-2.90;68.20;;;;;;5015110;28;20191;-86
2024/01/10 00:33:41;;;;;;;33.78;14.77;;;-2.90;68.20;;;;;;5015219;28;20279;-86
2024/01/10 00:36:08;;;;;;;31.70;13.90;;;-2.90;68.20;;;;;;5015226;28;20217;-86
2024/01/10 00:38:37;;;;;;;26.85;14.20;;;-2.90;68.20;;;;;;5014695;28;20310;-88
2024/01/10 00:41:04;;;;;;;31.17;14.07;;;-2.90;68.70;;;;;;5014283;28;20231;-86
2024/01/10 00:43:31;;;;;;;30.92;14.20;;;-2.90;69.10;;;;;;5014703;28;20315;-86
2024/01/10 00:45:58;;;;;;;27.08;12.98;;;-2.90;69.00;;;;;;5014821;28;20192;-86
2024/01/10 00:48:25;;;;;;;29.40;13.18;;;-2.90;69.10;;;;;;5014761;28;20227;-86
2024/01/10 00:50:53;;;;;;;35.45;13.85;;;-2.80;68.70;;;;;;5014419;28;20291;-86
2024/01/10 00:53:20;;;;;;;27.35;15.40;;;-2.90;68.60;;;;;;5007153;28;20228;-86
2024/01/10 00:55:47;;;;;;;29.80;13.43;;;-2.90;68.50;;;;;;5034044;28;20278;-87
2024/01/10 00:58:14;;;;;;;26.52;12.25;;;-2.90;68.30;;;;;;5034314;28;20314;-87
2024/01/10 01:00:41;;;;;;;34.63;13.23;;;-2.90;68.30;;;;;;5034100;28;20199;-86
2024/01/10 01:03:11;;;;;;;28.30;12.15;;;-2.80;68.30;;;;;;5034263;28;20286;-87
2024/01/10 01:05:38;;;;;;;27.30;13.07;;;-2.90;68.50;;;;;;5021310;28;20279;-87
2024/01/10 01:08:07;;;;;;;32.83;14.18;;;-2.90;68.50;;;;;;5014065;28;20184;-86
2024/01/10 01:10:35;;;;;;;29.58;13.70;;;-2.90;68.80;;;;;;5014371;28;20258;-86
2024/01/10 01:13:01;;;;;;;22.90;12.75;;;-3.00;68.90;;;;;;5013772;28;20284;-86
2024/01/10 01:15:28;;;;;;;32.65;14.82;;;-2.90;69.50;;;;;;5014244;28;20199;-89
2024/01/10 01:17:55;;;;;;;36.83;14.50;;;-3.00;69.40;;;;;;5014124;28;20621;-87
2024/01/10 01:20:22;;;;;;;29.92;13.90;;;-2.90;69.60;;;;;;5014219;28;20195;-86
2024/01/10 01:22:50;;;;;;;34.78;16.60;;;-2.90;69.70;;;;;;5014305;28;20295;-86
2024/01/10 01:25:19;;;;;;;29.23;14.35;;;-2.90;69.60;;;;;;5014166;28;20658;-89
2024/01/10 01:27:46;;;;;;;30.23;12.68;;;-2.90;69.70;;;;;;5026222;28;20196;-86
2024/01/10 01:30:13;;;;;;;31.33;14.38;;;-2.90;69.70;;;;;;5033914;28;20290;-86
2024/01/10 01:32:43;;;;;;;31.02;15.30;;;-2.90;69.90;;;;;;5033778;28;20209;-87
2024/01/10 01:35:10;;;;;;;27.10;14.60;;;-2.90;69.90;;;;;;5033573;28;20192;-87
2024/01/10 01:37:37;;;;;;;34.65;14.05;;;-2.90;70.10;;;;;;5033649;28;20306;-87
2024/01/10 01:40:05;;;;;;;27.80;15.02;;;-2.90;70.10;;;;;;5033145;28;20223;-86
2024/01/10 01:42:35;;;;;;;39.53;15.82;;;-2.90;70.90;;;;;;5033600;28;20279;-88
2024/01/10 01:45:03;;;;;;;36.75;15.80;;;-2.90;69.90;;;;;;5033221;28;20278;-86
2024/01/10 01:47:30;;;;;;;38.33;16.63;;;-2.90;69.70;;;;;;5033633;28;20273;-86
2024/01/10 01:49:57;;;;;;;32.00;15.80;;;-2.90;69.70;;;;;;5033531;28;20375;-87
2024/01/10 01:52:24;;;;;;;33.58;14.50;;;-2.90;68.60;;;;;;5032541;28;20233;-88
2024/01/10 01:54:51;;;;;;;30.88;15.30;;;-3.00;68.90;;;;;;5033368;28;20283;-86
2024/01/10 01:57:19;;;;;;;26.77;13.75;;;-3.10;69.20;;;;;;5033463;28;20648;-86
2024/01/10 01:59:47;;;;;;;33.28;14.32;;;-3.10;69.10;;;;;;5031769;28;20595;-86
2024/01/10 02:02:15;;;;;;;34.88;13.50;;;-3.10;68.90;;;;;;5031477;28;20183;-87
2024/01/10 02:04:43;;;;;;;36.10;15.90;;;-3.20;69.00;;;;;;5032984;28;20278;-87
2024/01/10 02:07:10;;;;;;;30.35;14.63;;;-3.20;69.10;;;;;;5032743;28;20196;-86
2024/01/10 02:09:37;;;;;;;32.58;15.60;;;-3.30;69.20;;;;;;5032931;28;20294;-87
2024/01/10 02:12:05;;;;;;;38.38;16.60;;;-3.30;69.20;;;;;;5024839;28;20303;-87
2024/01/10 02:14:31;;;;;;;32.30;12.68;;;-3.30;69.10;;;;;;5013428;28;20283;-86
2024/01/10 02:17:00;;;;;;;26.80;13.90;;;-3.40;68.90;;;;;;5013082;28;20722;-87
2024/01/10 02:19:29;;;;;;;36.33;13.77;;;-3.40;69.40;;;;;;5013339;28;20291;-88
2024/01/10 02:21:56;;;;;;;30.00;13.95;;;-3.50;69.50;;;;;;5013347;28;20199;-86
2024/01/10 02:24:23;;;;;;;36.15;13.48;;;-3.50;69.40;;;;;;5020926;28;20188;-87
2024/01/10 02:26:52;;;;;;;32.65;13.38;;;-3.60;69.10;;;;;;5032794;28;20577;-87
2024/01/10 02:29:18;;;;;;;30.30;14.63;;;-3.60;69.10;;;;;;5032905;28;20282;-87
2024/01/10 02:31:45;;;;;;;35.10;13.57;;;-3.70;69.20;;;;;;5019193;28;20216;-86
2024/01/10 02:34:12;;;;;;;26.25;13.30;;;-3.70;68.90;;;;;;5012893;28;20283;-86
2024/01/10 02:36:40;;;;;;;28.58;14.48;;;-3.80;68.80;;;;;;5013279;28;20245;-86
2024/01/10 02:39:06;;;;;;;33.90;14.98;;;-3.80;68.60;;;;;;5014012;28;20263;-86
2024/01/10 02:41:33;;;;;;;31.45;14.35;;;-3.80;68.40;;;;;;5022851;28;20219;-86
2024/01/10 02:44:02;;;;;;;31.10;13.65;;;-3.90;68.30;;;;;;5031235;28;20275;-87
2024/01/10 02:46:28;;;;;;;27.95;13.93;;;-3.90;68.50;;;;;;5032851;28;20295;-87
2024/01/10 02:48:56;;;;;;;33.08;13.80;;;-3.90;68.50;;;;;;5032262;28;20705;-87
2024/01/10 02:51:23;;;;;;;30.42;15.02;;;-4.00;68.80;;;;;;5032978;28;20192;-86
2024/01/10 02:53:49;;;;;;;28.30;13.20;;;-4.00;68.90;;;;;;5018021;28;20384;-86
2024/01/10 02:56:16;;;;;;;30.75;15.27;;;-4.00;68.80;;;;;;5013172;28;20287;-87
2024/01/10 02:58:43;;;;;;;31.35;13.95;;;-4.00;68.60;;;;;;5012375;28;20306;-86
2024/01/10 03:01:14;;;;;;;27.88;13.38;;;-4.00;68.60;;;;;;5012999;28;20279;-86
2024/01/10 03:03:41;;;;;;;35.88;13.70;;;-4.00;68.70;;;;;;5012987;28;20539;-85
2024/01/10 03:06:07;;;;;;;38.50;17.27;;;-4.00;68.90;;;;;;5025796;28;20594;-88
2024/01/10 03:08:34;;;;;;;33.83;15.18;;;-4.00;68.90;;;;;;5012256;28;20602;-86
2024/01/10 03:11:01;;;;;;;32.50;15.35;;;-4.00;68.90;;;;;;5012637;28;20306;-86
2024/01/10 03:13:28;;;;;;;36.80;13.70;;;-3.90;68.90;;;;;;5012857;28;20232;-86
2024/01/10 03:15:55;;;;;;;32.40;13.38;;;-3.90;68.80;;;;;;5012774;28;20283;-86
2024/01/10 03:18:24;;;;;;;29.83;15.48;;;-3.90;69.10;;;;;;5011944;28;20307;-86
2024/01/10 03:20:51;;;;;;;34.63;15.50;;;-3.90;69.20;;;;;;5030960;28;20275;-86
2024/01/10 03:23:18;;;;;;;34.20;14.98;;;-3.80;69.30;;;;;;5032222;28;20214;-86
2024/01/10 03:25:46;;;;;;;40.53;14.30;;;-3.80;69.50;;;;;;5032224;28;20282;-87
2024/01/10 03:28:16;;;;;;;29.65;13.63;;;-3.80;69.40;;;;;;5031334;28;20195;-87
2024/01/10 03:30:43;;;;;;;31.80;15.20;;;-3.80;69.20;;;;;;5012777;28;20220;-86
2024/01/10 03:33:10;;;;;;;39.38;15.07;;;-3.80;69.20;;;;;;5012383;28;20290;-86
2024/01/10 03:35:38;;;;;;;40.22;16.95;;;-3.80;69.00;;;;;;5012605;28;20287;-86
2024/01/10 03:38:05;;;;;;;33.92;15.07;;;-3.70;69.00;;;;;;5015968;28;20306;-87
2024/01/10 03:40:32;;;;;;;34.67;15.98;;;-3.70;69.20;;;;;;5016190;28;20279;-86
2024/01/10 03:42:59;;;;;;;26.88;13.80;;;-3.70;68.90;;;;;;5015820;28;20234;-86
2024/01/10 03:45:26;;;;;;;31.08;14.90;;;-3.60;68.40;;;;;;5015807;28;20733;-86
2024/01/10 03:47:53;;;;;;;37.33;16.73;;;-3.70;68.50;;;;;;5016094;28;20200;-86
2024/01/10 03:50:20;;;;;;;33.78;15.35;;;-3.70;68.80;;;;;;5009206;28;20290;-86
2024/01/10 03:52:49;;;;;;;39.78;17.10;;;-3.70;68.80;;;;;;5035455;28;20716;-87
2024/01/10 03:55:16;;;;;;;40.60;17.40;;;-3.80;69.00;;;;;;5035612;28;20284;-86
2024/01/10 03:57:43;;;;;;;32.35;17.10;;;-3.70;69.40;;;;;;5035567;28;20215;-87
2024/01/10 04:00:11;;;;;;;38.03;14.82;;;-3.70;69.40;;;;;;5034076;28;20294;-86
2024/01/10 04:02:38;;;;;;;34.80;16.70;;;-3.70;69.80;;;;;;5015386;28;20196;-86
2024/01/10 04:05:08;;;;;;;39.47;18.05;;;-3.60;69.90;;;;;;5015410;28;20196;-86
2024/01/10 04:07:35;;;;;;;34.25;15.75;;;-3.60;69.60;;;;;;5015406;28;20196;-87
2024/01/10 04:10:04;;;;;;;36.85;15.63;;;-3.60;69.80;;;;;;5014882;28;20279;-87
2024/01/10 04:12:31;;;;;;;32.97;15.55;;;-3.50;69.50;;;;;;5002210;28;20172;-87
2024/01/10 04:14:59;;;;;;;37.90;15.27;;;-3.50;69.50;;;;;;5015189;28;20677;-86
2024/01/10 04:17:26;;;;;;;46.75;17.42;;;-3.50;69.60;;;;;;5015517;28;20619;-86
2024/01/10 04:19:52;;;;;;;40.15;18.95;;;-3.50;69.50;;;;;;5015422;28;20279;-86
2024/01/10 04:22:20;;;;;;;39.47;18.67;;;-3.50;69.70;;;;;;4996847;28;20280;-86
2024/01/10 04:24:46;;;;;;;35.80;17.77;;;-3.50;70.10;;;;;;4995756;28;20219;-86
2024/01/10 04:27:15;;;;;;;40.60;16.70;;;-3.50;70.10;;;;;;4995747;28;20777;-86
2024/01/10 04:29:42;;;;;;;41.20;18.15;;;-3.50;70.10;;;;;;4995488;28;20275;-86
2024/01/10 04:32:09;;;;;;;37.58;17.55;;;-3.50;70.40;;;;;;5011278;28;20216;-87
2024/01/10 04:34:36;;;;;;;39.67;18.65;;;-3.50;70.50;;;;;;5015051;28;20279;-86
2024/01/10 04:37:03;;;;;;;37.85;16.40;;;-3.60;70.40;;;;;;5015139;28;20286;-86
2024/01/10 04:39:31;;;;;;;44.45;16.83;;;-3.50;70.20;;;;;;5014928;28;20303;-86
2024/01/10 04:41:58;;;;;;;43.28;19.27;;;-3.50;70.00;;;;;;4999705;28;20742;-86
2024/01/10 04:44:26;;;;;;;34.13;15.65;;;-3.50;69.90;;;;;;4995380;28;20279;-86
2024/01/10 04:46:53;;;;;;;42.42;16.88;;;-3.50;69.90;;;;;;4995487;28;20284;-86
2024/01/10 04:49:21;;;;;;;43.92;17.58;;;-3.50;69.90;;;;;;4994153;28;20647;-86
2024/01/10 04:51:48;;;;;;;33.05;15.50;;;-3.60;69.50;;;;;;5007249;28;20291;-86
2024/01/10 04:54:15;;;;;;;35.58;18.40;;;-3.60;69.90;;;;;;5014434;28;20283;-87
2024/01/10 04:56:42;;;;;;;48.05;17.70;;;-3.60;69.80;;;;;;5014747;28;20275;-86
2024/01/10 04:59:09;;;;;;;39.42;16.80;;;-3.70;69.70;;;;;;5014273;28;20212;-87
2024/01/10 05:01:38;;;;;;;37.72;15.23;;;-3.70;70.40;;;;;;5003575;28;20280;-86
2024/01/10 05:04:05;;;;;;;36.60;17.50;;;-3.70;70.90;;;;;;4994824;28;20193;-86
2024/01/10 05:06:32;;;;;;;41.22;15.60;;;-3.70;70.90;;;;;;4995141;28;20196;-86
2024/01/10 05:08:59;;;;;;;35.50;14.95;;;-3.70;70.90;;;;;;4994923;28;20292;-87
2024/01/10 05:11:26;;;;;;;42.22;17.70;;;-3.70;71.10;;;;;;5015814;28;20697;-86
2024/01/10 05:13:53;;;;;;;35.90;16.63;;;-3.70;72.00;;;;;;5034374;28;20199;-86
2024/01/10 05:16:21;;;;;;;38.95;14.77;;;-3.70;71.30;;;;;;5009365;28;20280;-86
2024/01/10 05:18:49;;;;;;;33.47;16.98;;;-3.70;71.40;;;;;;5014149;28;20693;-87
2024/01/10 05:21:16;;;;;;;40.10;15.57;;;-3.70;71.80;;;;;;5013950;28;20275;-87
2024/01/10 05:23:43;;;;;;;36.78;18.45;;;-3.60;72.00;;;;;;5014448;28;20228;-86
2024/01/10 05:26:10;;;;;;;38.80;17.40;;;-3.60;72.10;;;;;;5014383;28;20635;-86
2024/01/10 05:28:37;;;;;;;39.50;16.60;;;-3.50;71.90;;;;;;5019286;28;20267;-89
2024/01/10 05:31:04;;;;;;;41.20;17.85;;;-3.50;71.70;;;;;;5025243;28;20184;-87
2024/01/10 05:33:31;;;;;;;40.15;16.70;;;-3.50;71.80;;;;;;5014226;28;20291;-86
2024/01/10 05:36:00;;;;;;;43.47;16.58;;;-3.50;71.80;;;;;;5014215;28;20621;-86
2024/01/10 05:38:27;;;;;;;33.50;15.85;;;-3.50;71.40;;;;;;5013982;28;20216;-87
2024/01/10 05:40:54;;;;;;;40.30;19.17;;;-3.50;71.70;;;;;;5022316;28;20262;-86
2024/01/10 05:43:21;;;;;;;39.22;17.58;;;-3.50;72.20;;;;;;5033768;28;20306;-86
2024/01/10 05:45:48;;;;;;;43.40;19.42;;;-3.50;72.20;;;;;;5033719;28;20713;-86
2024/01/10 05:48:17;;;;;;;46.50;19.48;;;-3.50;72.30;;;;;;5033340;28;20238;-87
2024/01/10 05:50:44;;;;;;;44.28;18.27;;;-3.50;72.30;;;;;;5026425;28;20271;-86
2024/01/10 05:53:16;;;;;;;37.28;16.42;;;-3.50;72.40;;;;;;5013587;28;20282;-86
2024/01/10 05:55:43;;;;;;;53.72;20.98;;;-3.40;71.80;;;;;;5013802;28;20226;-86
2024/01/10 05:58:10;;;;;;;54.40;20.50;;;-3.40;72.00;;;;;;5013741;28;20234;-86
2024/01/10 06:00:37;;;;;;;45.45;17.50;;;-3.50;72.40;;;;;;5018925;28;20583;-86
2024/01/10 06:03:04;;;;;;;55.38;20.13;;;-3.40;73.00;;;;;;5033513;28;20223;-86
2024/01/10 06:05:32;;;;;;;44.45;18.20;;;-3.40;73.00;;;;;;5030761;28;20281;-85
2024/01/10 06:07:59;;;;;;;37.60;16.60;;;-3.30;73.20;;;;;;5033641;28;20199;-88
2024/01/10 06:10:27;;;;;;;36.85;16.80;;;-3.30;73.20;;;;;;5020433;28;20277;-87
2024/01/10 06:12:54;;;;;;;51.05;19.50;;;-3.20;73.20;;;;;;5033323;28;20196;-87
2024/01/10 06:15:21;;;;;;;42.92;18.15;;;-3.10;72.80;;;;;;5033191;28;20278;-87
2024/01/10 06:17:49;;;;;;;42.83;17.85;;;-3.10;72.70;;;;;;5014228;28;20270;-86
2024/01/10 06:20:16;;;;;;;35.10;16.48;;;-3.10;72.80;;;;;;5014573;28;20274;-86
2024/01/10 06:22:43;;;;;;;42.67;17.80;;;-3.00;72.80;;;;;;5013126;28;20733;-86
2024/01/10 06:25:10;;;;;;;44.13;17.40;;;-3.00;72.80;;;;;;5011617;28;20615;-87
2024/01/10 06:27:39;;;;;;;57.55;21.90;;;-2.90;72.20;;;;;;5028366;28;20195;-86
2024/01/10 06:30:07;;;;;;;43.90;19.10;;;-2.90;72.40;;;;;;5032526;28;20724;-90
2024/01/10 06:32:35;;;;;;;40.40;19.85;;;-2.90;72.20;;;;;;5033000;28;20605;-87
2024/01/10 06:35:04;;;;;;;41.85;19.10;;;-2.90;72.00;;;;;;5032594;28;20238;-87
2024/01/10 06:37:31;;;;;;;44.55;18.15;;;-2.90;71.50;;;;;;5020254;28;20227;-87
2024/01/10 06:39:58;;;;;;;44.22;19.80;;;-2.90;71.30;;;;;;5013234;28;20266;-86
2024/01/10 06:42:26;;;;;;;48.75;19.83;;;-2.90;71.30;;;;;;5013196;28;20282;-86
2024/01/10 06:44:54;;;;;;;35.00;18.30;;;-2.90;71.30;;;;;;5012883;28;20283;-86
2024/01/10 06:47:21;;;;;;;40.08;19.55;;;-2.90;71.30;;;;;;5022549;28;20270;-86
2024/01/10 06:49:48;;;;;;;41.13;18.50;;;-2.90;71.30;;;;;;5032859;28;20201;-86
2024/01/10 06:52:16;;;;;;;41.88;17.67;;;-3.00;71.10;;;;;;5032303;28;20283;-87
2024/01/10 06:54:43;;;;;;;45.83;18.48;;;-3.00;70.80;;;;;;5032813;28;20188;-86
2024/01/10 06:57:10;;;;;;;44.97;18.77;;;-3.10;70.30;;;;;;5023363;28;20292;-86
2024/01/10 06:59:37;;;;;;;47.33;19.52;;;-3.10;70.10;;;;;;5013002;28;20301;-86
2024/01/10 07:02:05;;;;;;;49.85;19.33;;;-3.10;70.40;;;;;;5012728;28;20250;-86
2024/01/10 07:04:32;;;;;;;53.47;19.63;;;-3.10;70.50;;;;;;5013084;28;20196;-88
2024/01/10 07:06:59;;;;;;;61.15;22.33;;;-3.10;70.40;;;;;;5012886;28;20276;-86
2024/01/10 07:09:26;;;;;;;52.30;19.65;;;-3.10;70.30;;;;;;5012671;28;20291;-86
2024/01/10 07:11:53;;;;;;;39.85;17.45;;;-3.10;70.30;;;;;;5018417;28;20632;-87
2024/01/10 07:14:19;;;;;;;63.58;22.20;;;-3.00;70.20;;;;;;5033445;28;20188;-86
2024/01/10 07:16:47;;;;;;;46.38;19.52;;;-3.00;70.10;;;;;;5016554;28;20714;-86
2024/01/10 07:19:15;;;;;;;44.53;18.85;;;-3.10;70.00;;;;;;5015931;28;20711;-88
2024/01/10 07:21:43;;;;;;;54.20;25.17;;;-3.10;70.10;;;;;;5028322;28;20274;-88
2024/01/10 07:24:11;;;;;;;48.20;20.45;;;-3.10;70.40;;;;;;5035777;28;20250;-86
2024/01/10 07:26:38;;;;;;;52.47;20.67;;;-3.00;70.70;;;;;;5033972;28;20294;-86
2024/01/10 07:29:08;;;;;;;52.08;19.77;;;-3.00;71.30;;;;;;5030102;28;20185;-87
2024/01/10 07:31:35;;;;;;;55.55;20.05;;;-2.90;71.60;;;;;;5026720;28;20570;-86
2024/01/10 07:34:04;;;;;;;48.67;21.92;;;-2.80;71.60;;;;;;5015709;28;20238;-87
2024/01/10 07:36:33;;;;;;;53.50;21.20;;;-2.80;71.20;;;;;;5027686;28;20192;-87
2024/01/10 07:39:00;;;;;;;62.00;23.38;;;-2.70;71.20;;;;;;5026516;28;20224;-86
2024/01/10 07:41:26;;;;;;;46.38;19.60;;;-2.60;71.00;;;;;;5031584;28;20274;-86
2024/01/10 07:43:53;;;;;;;38.78;20.63;;;-2.50;70.80;;;;;;5029625;28;20287;-86
2024/01/10 07:46:20;;;;;;;46.97;18.85;;;-2.50;70.30;;;;;;5028916;28;20258;-87
2024/01/10 07:48:47;;;;;;;40.47;19.75;;;-2.40;70.20;;;;;;5021597;28;20266;-88
2024/01/10 07:51:19;;;;;;;52.85;20.27;;;-2.40;69.90;;;;;;5020591;28;20192;-86
2024/01/10 07:53:47;;;;;;;38.58;17.35;;;-2.30;69.50;;;;;;5015558;28;20521;-87
2024/01/10 07:56:15;;;;;;;53.63;20.63;;;-2.30;69.40;;;;;;5017481;28;20286;-86
2024/01/10 07:58:42;;;;;;;53.83;19.92;;;-2.20;69.10;;;;;;5014427;28;20224;-86
2024/01/10 08:01:10;;;;;;;45.90;21.00;;;-2.10;68.60;;;;;;5024819;28;20270;-87
2024/01/10 08:03:37;;;;;;;68.80;23.85;;;-2.00;68.70;;;;;;5020121;28;20694;-86
2024/01/10 08:06:04;;;;;;;56.92;20.40;;;-1.90;68.30;;;;;;5015770;28;20216;-88
2024/01/10 08:08:32;;;;;;;46.50;19.40;;;-1.80;68.40;;;;;;5029966;28;20578;-88
2024/01/10 08:11:01;;;;;;;35.40;17.60;;;-1.80;68.10;;;;;;5031976;28;20318;-88
2024/01/10 08:13:27;;;;;;;49.67;20.05;;;-1.70;68.00;;;;;;5032945;28;20502;-87
2024/01/10 08:15:54;;;;;;;46.00;22.00;;;-1.60;67.90;;;;;;5033734;28;20282;-86
2024/01/10 08:18:21;;;;;;;47.13;19.55;;;-1.40;67.60;;;;;;5035760;28;20290;-86
2024/01/10 08:20:48;;;;;;;44.20;20.60;;;-1.30;66.90;;;;;;5035076;28;20211;-86
2024/01/10 08:23:15;;;;;;;46.47;20.45;;;-1.20;66.50;;;;;;5035539;28;20246;-86
2024/01/10 08:25:43;;;;;;;48.08;22.27;;;-1.10;66.00;;;;;;5035241;28;20606;-86
2024/01/10 08:28:13;;;;;;;58.63;22.60;;;-1.10;65.60;;;;;;5035538;28;20191;-86
2024/01/10 08:30:40;;;;;;;43.85;22.52;;;-1.00;64.00;;;;;;5035428;28;20211;-86
2024/01/10 08:33:07;;;;;;;50.28;21.65;;;-1.00;62.40;;;;;;5035490;28;20254;-86
2024/01/10 08:35:34;;;;;;;43.25;19.73;;;-0.90;62.50;;;;;;5035125;28;20502;-86
2024/01/10 08:38:02;;;;;;;64.18;25.67;;;-0.90;62.70;;;;;;5035342;28;20286;-87
2024/01/10 08:40:29;;;;;;;59.85;26.38;;;-0.70;62.60;;;;;;5034930;28;20567;-87
2024/01/10 08:42:56;;;;;;;50.83;22.33;;;-0.40;63.10;;;;;;5035121;28;20187;-86
2024/01/10 08:45:25;;;;;;;51.88;22.52;;;0.00;62.20;;;;;;5035113;28;20192;-86
2024/01/10 08:47:52;;;;;;;54.22;23.60;;;0.40;62.00;;;;;;5034890;28;20191;-87
2024/01/10 08:50:19;;;;;;;55.80;24.92;;;0.90;61.10;;;;;;5026885;28;20191;-87
2024/01/10 08:52:46;;;;;;;53.05;25.95;;;1.20;59.60;;;;;;5034718;28;20282;-86
2024/01/10 08:55:13;;;;;;;45.10;23.75;;;1.50;58.20;;;;;;5034730;28;20286;-86
2024/01/10 08:57:40;;;;;;;55.47;26.80;;;1.70;58.10;;;;;;5034915;28;20282;-87
2024/01/10 09:00:11;;;;;;;55.60;25.98;;;1.90;57.90;;;;;;5034818;28;20302;-87
2024/01/10 09:02:39;;;;;;;55.22;26.45;;;2.20;56.90;;;;;;5034477;28;20271;-87
2024/01/10 09:05:08;;;;;;;46.00;25.95;;;2.40;56.30;;;;;;5034826;28;20278;-86
2024/01/10 09:07:35;;;;;;;41.88;22.42;;;2.60;56.00;;;;;;5035196;28;20291;-87
2024/01/10 09:10:02;;;;;;;64.13;27.85;;;2.90;55.80;;;;;;5034308;28;20727;-86
2024/01/10 09:12:28;;;;;;;57.03;25.65;;;3.30;55.70;;;;;;5034644;28;20179;-86
2024/01/10 09:14:55;;;;;;;55.83;26.40;;;3.60;55.30;;;;;;5034632;28;20286;-86
2024/01/10 09:17:22;;;;;;;58.53;26.67;;;3.90;54.30;;;;;;5034493;28;20283;-86
2024/01/10 09:19:50;;;;;;;44.53;23.85;;;3.90;53.10;;;;;;5034293;28;20223;-86
2024/01/10 09:22:17;;;;;;;51.75;24.13;;;4.00;52.10;;;;;;5034517;28;20287;-86
2024/01/10 09:24:44;;;;;;;60.38;27.70;;;4.00;52.10;;;;;;5033957;28;20278;-86
2024/01/10 09:27:11;;;;;;;57.63;27.40;;;4.20;51.70;;;;;;5034229;28;20560;-87
2024/01/10 09:29:38;;;;;;;48.83;24.00;;;4.40;51.10;;;;;;5034224;28;20282;-87
2024/01/10 09:32:06;;;;;;;54.30;26.95;;;4.40;50.70;;;;;;5034325;28;20278;-86
2024/01/10 09:34:33;;;;;;;51.10;28.50;;;4.40;50.00;;;;;;5033612;28;20278;-86
2024/01/10 09:37:02;;;;;;;51.70;26.75;;;4.30;49.00;;;;;;5034113;28;20191;-86
2024/01/10 09:39:28;;;;;;;43.47;23.42;;;4.20;48.90;;;;;;5034158;28;20215;-87
2024/01/10 09:41:57;;;;;;;38.58;21.67;;;4.30;49.40;;;;;;5034106;28;20218;-86
2024/01/10 09:44:24;;;;;;;59.70;24.33;;;4.30;49.20;;;;;;5033970;28;20226;-87
2024/01/10 09:46:54;;;;;;;45.50;21.38;;;4.30;48.30;;;;;;5033636;28;20200;-86
2024/01/10 09:49:21;;;;;;;50.00;24.08;;;4.30;47.90;;;;;;5034270;28;20191;-86
2024/01/10 09:51:50;;;;;;;48.17;25.30;;;4.40;47.60;;;;;;5034140;28;20254;-87
2024/01/10 09:54:19;;;;;;;47.95;25.02;;;4.50;46.80;;;;;;5033874;28;20187;-86
2024/01/10 09:56:47;;;;;;;52.17;28.80;;;4.50;46.90;;;;;;5034105;28;20627;-86
2024/01/10 09:59:14;;;;;;;56.45;28.48;;;4.60;46.80;;;;;;5033824;28;20517;-86
2024/01/10 10:01:41;;;;;;;56.78;27.67;;;4.60;46.40;;;;;;5033720;28;20245;-86
2024/01/10 10:04:10;;;;;;;55.78;26.27;;;4.60;46.70;;;;;;5033882;28;20283;-87
2024/01/10 10:06:37;;;;;;;46.00;24.98;;;4.70;46.90;;;;;;5033643;28;20294;-87
2024/01/10 10:09:04;;;;;;;46.10;25.92;;;4.90;46.40;;;;;;5033681;28;20227;-87
2024/01/10 10:11:32;;;;;;;54.03;31.17;;;4.90;45.20;;;;;;5033784;28;20257;-87
2024/01/10 10:14:15;;;;;;;47.95;24.73;;;4.70;45.00;;;;;;5033510;28;20191;-87
2024/01/10 10:16:42;;;;;;;47.20;22.85;;;4.60;44.40;;;;;;5033648;28;20697;-87
2024/01/10 10:19:11;;;;;;;42.42;23.08;;;4.50;44.60;;;;;;5033368;28;20290;-87
2024/01/10 10:21:38;;;;;;;46.22;24.33;;;4.50;45.20;;;;;;5033472;28;20243;-87
2024/01/10 10:24:05;;;;;;;45.08;22.80;;;4.60;45.50;;;;;;5033457;28;20211;-87
2024/01/10 10:26:35;;;;;;;46.58;22.80;;;4.80;45.70;;;;;;5033539;28;20282;-87
2024/01/10 10:29:02;;;;;;;42.58;20.83;;;5.00;46.20;;;;;;5033349;28;20229;-87
2024/01/10 10:31:31;;;;;;;37.30;20.70;;;5.40;45.80;;;;;;5033409;28;20201;-87
2024/01/10 10:34:00;;;;;;;35.50;19.92;;;5.80;45.10;;;;;;5032941;28;20199;-87
2024/01/10 10:36:27;;;;;;;42.60;22.10;;;6.30;44.40;;;;;;5033014;28;20379;-87
2024/01/10 10:38:54;;;;;;;46.00;23.17;;;6.60;44.10;;;;;;5033376;28;20200;-87
2024/01/10 10:41:21;;;;;;;39.38;21.90;;;6.80;43.30;;;;;;5033316;28;20305;-87
2024/01/10 10:43:52;;;;;;;43.97;23.55;;;7.10;42.90;;;;;;5032902;28;20303;-87
2024/01/10 10:46:22;;;;;;;44.45;23.52;;;7.40;42.10;;;;;;5034260;28;20274;-87
2024/01/10 10:48:49;;;;;;;45.28;26.30;;;7.60;41.20;;;;;;5037444;28;20191;-87
2024/01/10 10:51:20;;;;;;;41.97;23.73;;;7.60;40.70;;;;;;5037027;28;20245;-87
2024/01/10 10:53:48;;;;;;;45.95;25.10;;;7.70;40.50;;;;;;5037555;28;20200;-87
2024/01/10 10:56:15;;;;;;;50.28;28.27;;;7.80;40.30;;;;;;5036877;28;20779;-87
2024/01/10 10:58:44;;;;;;;44.28;23.45;;;8.00;40.00;;;;;;5037328;28;20290;-87
2024/01/10 11:01:14;;;;;;;52.97;27.25;;;8.00;39.50;;;;;;5037075;28;20325;-88
2024/01/10 11:03:44;;;;;;;50.05;25.77;;;8.00;39.30;;;;;;5037108;28;20299;-87
2024/01/10 11:06:11;;;;;;;57.42;27.77;;;7.90;39.30;;;;;;5037139;28;20186;-87
2024/01/10 11:08:43;;;;;;;45.40;24.35;;;7.80;39.10;;;;;;5037008;28;20232;-87
2024/01/10 11:11:22;;;;;;;42.30;24.15;;;7.70;39.20;;;;;;5037066;28;20326;-87
2024/01/10 11:14:07;;;;;;;47.92;25.92;;;7.50;39.10;;;;;;5037017;28;20265;-87
2024/01/10 11:17:04;;;;;;;46.13;25.52;;;7.40;39.40;;;;;;5036665;28;20266;-87
2024/01/10 11:19:59;;;;;;;43.55;25.55;;;7.30;39.80;;;;;;5030424;28;20290;-87
2024/01/10 11:22:44;;;;;;;45.88;23.45;;;7.10;39.60;;;;;;5037051;28;20184;-87
2024/01/10 11:25:12;;;;;;;36.28;20.70;;;6.90;40.10;;;;;;5036536;28;20278;-87
2024/01/10 11:27:39;;;;;;;44.72;25.25;;;6.60;40.40;;;;;;5036319;28;20230;-87
2024/01/10 11:30:07;;;;;;;45.95;26.02;;;6.50;41.10;;;;;;5036349;28;20286;-87
2024/01/10 11:32:36;;;;;;;45.17;24.85;;;6.50;41.10;;;;;;5036764;28;20195;-87
2024/01/10 11:35:11;;;;;;;42.47;25.45;;;6.60;41.50;;;;;;5036166;28;20202;-88
2024/01/10 11:37:44;;;;;;;39.28;22.48;;;6.70;41.50;;;;;;5036305;28;20187;-87
2024/01/10 11:40:13;;;;;;;34.72;21.17;;;6.70;41.30;;;;;;5036623;28;20253;-87
2024/01/10 11:42:43;;;;;;;42.00;22.25;;;6.80;41.80;;;;;;5036532;28;20191;-87
2024/01/10 11:45:10;;;;;;;40.88;21.45;;;7.00;41.60;;;;;;5036520;28;20577;-87
2024/01/10 11:47:41;;;;;;;42.83;22.55;;;7.00;41.50;;;;;;5036456;28;20187;-87
2024/01/10 11:50:09;;;;;;;45.55;25.55;;;7.10;41.40;;;;;;5036203;28;20210;-87
2024/01/10 11:52:38;;;;;;;44.38;24.23;;;7.20;42.00;;;;;;5036317;28;20192;-87
2024/01/10 11:55:07;;;;;;;44.70;22.95;;;7.20;40.60;;;;;;5035969;28;20188;-87
2024/01/10 11:57:34;;;;;;;39.65;22.10;;;7.10;40.80;;;;;;5035597;28;20227;-87
2024/01/10 12:00:02;;;;;;;43.05;23.05;;;7.00;41.00;;;;;;5036008;28;20202;-87
2024/01/10 12:02:31;;;;;;;45.67;23.15;;;6.90;41.10;;;;;;5036254;28;20196;-87
2024/01/10 12:04:59;;;;;;;41.25;21.52;;;7.00;41.60;;;;;;5036078;28;20192;-87
2024/01/10 12:07:27;;;;;;;42.08;22.10;;;7.20;41.70;;;;;;5031625;28;20184;-87
2024/01/10 12:09:54;;;;;;;36.28;21.52;;;7.30;41.50;;;;;;5034767;28;20538;-87
2024/01/10 12:12:21;;;;;;;34.20;18.27;;;7.30;41.40;;;;;;5026755;28;20176;-87
2024/01/10 12:14:48;;;;;;;43.17;21.50;;;7.30;41.70;;;;;;5016077;28;20203;-87
2024/01/10 12:17:16;;;;;;;38.33;22.63;;;7.30;41.90;;;;;;5015779;28;20283;-87
2024/01/10 12:19:44;;;;;;;35.58;22.73;;;7.20;41.80;;;;;;5015515;28;20202;-87
2024/01/10 12:22:13;;;;;;;32.25;18.92;;;7.20;42.20;;;;;;5015692;28;20207;-87
2024/01/10 12:24:49;;;;;;;35.83;19.23;;;7.10;42.40;;;;;;5015847;28;20219;-87
2024/01/10 12:27:18;;;;;;;38.47;20.85;;;6.90;42.60;;;;;;5027231;28;20188;-87
2024/01/10 12:29:45;;;;;;;48.53;22.48;;;6.70;42.90;;;;;;5034738;28;20638;-87
2024/01/10 12:32:14;;;;;;;36.75;20.98;;;6.50;43.60;;;;;;5035603;28;20199;-88
2024/01/10 12:34:41;;;;;;;39.95;19.17;;;6.50;44.20;;;;;;5035372;28;20261;-87